Time,TemperatureF,DewpointF,PressureIn,WindDirection,WindDirectionDegrees,WindSpeedMPH,WindSpeedGustMPH,Humidity,HourlyPrecipIn,Conditions,Clouds,dailyrainin,SoftwareType,DateUTC
2013-06-12 00:15:00,56.3,56.0,29.44,West,270,0.0,-999.0,99,-99.99,,,0.00,Acu-Link.com,2013-06-12 04:15:00,
2013-06-12 00:30:00,56.3,56.0,29.44,West,270,0.0,-999.0,99,-99.99,,,0.00,Acu-Link.com,2013-06-12 04:30:00,
2013-06-12 00:45:00,56.1,55.8,29.44,NW,315,0.0,-999.0,99,-99.99,,,0.01,Acu-Link.com,2013-06-12 04:45:00,
2013-06-12 01:00:00,56.1,55.8,29.44,West,270,0.0,-999.0,99,-99.99,,,0.01,Acu-Link.com,2013-06-12 05:00:00,
2013-06-12 01:15:00,55.9,55.6,29.43,NE,45,0.0,-999.0,99,-99.99,,,0.01,Acu-Link.com,2013-06-12 05:15:00,
2013-06-12 01:31:00,55.9,55.6,29.44,South,180,0.0,-999.0,99,-99.99,,,0.01,Acu-Link.com,2013-06-12 05:31:00,
2013-06-12 01:46:00,55.9,55.6,29.44,NNW,337,0.0,-999.0,99,-99.99,,,0.02,Acu-Link.com,2013-06-12 05:46:00,
2013-06-12 02:01:00,55.9,55.6,29.43,NW,315,0.0,-999.0,99,-99.99,,,0.02,Acu-Link.com,2013-06-12 06:01:00,
2013-06-12 02:16:00,55.9,55.6,29.42,West,270,0.0,-999.0,99,-99.99,,,0.02,Acu-Link.com,2013-06-12 06:16:00,
2013-06-12 02:31:00,55.9,55.6,29.42,South,180,0.0,-999.0,99,-99.99,,,0.02,Acu-Link.com,2013-06-12 06:31:00,
2013-06-12 02:47:00,55.6,55.3,29.42,West,270,1.7,-999.0,99,-99.99,,,0.02,Acu-Link.com,2013-06-12 06:47:00,
2013-06-12 03:02:00,55.6,55.3,29.42,West,270,0.0,-999.0,99,-99.99,,,0.02,Acu-Link.com,2013-06-12 07:02:00,
2013-06-12 03:17:00,55.6,55.3,29.42,South,180,0.0,-999.0,99,-99.99,,,0.02,Acu-Link.com,2013-06-12 07:17:00,
2013-06-12 03:32:00,55.6,55.3,29.42,West,270,1.7,-999.0,99,-99.99,,,0.02,Acu-Link.com,2013-06-12 07:32:00,
2013-06-12 03:47:00,55.6,55.3,29.42,WNW,292,2.2,-999.0,99,-99.99,,,0.02,Acu-Link.com,2013-06-12 07:47:00,
2013-06-12 04:03:00,55.4,55.1,29.43,WNW,292,3.7,-999.0,99,-99.99,,,0.02,Acu-Link.com,2013-06-12 08:03:00,
2013-06-12 04:18:00,55.4,55.1,29.42,West,270,1.7,-999.0,99,-99.99,,,0.02,Acu-Link.com,2013-06-12 08:18:00,
2013-06-12 04:33:00,55.4,55.1,29.43,NNW,337,1.7,-999.0,99,-99.99,,,0.02,Acu-Link.com,2013-06-12 08:33:00,
2013-06-12 04:48:00,55.2,54.9,29.44,NE,45,2.7,-999.0,99,-99.99,,,0.03,Acu-Link.com,2013-06-12 08:48:00,
2013-06-12 05:03:00,55.2,54.9,29.44,South,180,1.7,-999.0,99,-99.99,,,0.03,Acu-Link.com,2013-06-12 09:03:00,
2013-06-12 05:19:00,55.2,54.9,29.44,SW,225,3.2,-999.0,99,-99.99,,,0.03,Acu-Link.com,2013-06-12 09:19:00,
2013-06-12 05:34:00,55.0,54.7,29.45,WSW,247,0.0,-999.0,99,-99.99,,,0.03,Acu-Link.com,2013-06-12 09:34:00,
2013-06-12 05:49:00,55.2,54.9,29.46,WSW,247,1.1,-999.0,99,-99.99,,,0.03,Acu-Link.com,2013-06-12 09:49:00,
2013-06-12 06:04:00,55.4,55.1,29.45,SW,225,1.1,-999.0,99,-99.99,,,0.03,Acu-Link.com,2013-06-12 10:04:00,
2013-06-12 06:20:00,55.8,55.5,29.45,South,180,2.7,-999.0,99,-99.99,,,0.03,Acu-Link.com,2013-06-12 10:20:00,
2013-06-12 06:35:00,56.3,56.0,29.46,SW,225,2.7,-999.0,99,-99.99,,,0.03,Acu-Link.com,2013-06-12 10:35:00,
2013-06-12 06:50:00,57.2,56.9,29.46,SSW,202,2.7,-999.0,99,-99.99,,,0.03,Acu-Link.com,2013-06-12 10:50:00,
2013-06-12 07:05:00,57.7,57.1,29.46,ENE,67,1.7,-999.0,98,-99.99,,,0.03,Acu-Link.com,2013-06-12 11:05:00,
2013-06-12 07:20:00,58.8,58.2,29.46,SE,135,0.0,-999.0,98,-99.99,,,0.03,Acu-Link.com,2013-06-12 11:20:00,
2013-06-12 07:36:00,59.0,57.9,29.45,SSW,202,1.7,-999.0,96,-99.99,,,0.03,Acu-Link.com,2013-06-12 11:36:00,
2013-06-12 07:51:00,59.5,57.8,29.46,SSW,202,4.2,-999.0,94,-99.99,,,0.03,Acu-Link.com,2013-06-12 11:51:00,
2013-06-12 08:06:00,59.5,58.1,29.46,West,270,4.2,-999.0,95,-99.99,,,0.03,Acu-Link.com,2013-06-12 12:06:00,
2013-06-12 08:21:00,60.8,58.5,29.46,ESE,112,5.3,-999.0,92,-99.99,,,0.03,Acu-Link.com,2013-06-12 12:21:00,
2013-06-12 08:36:00,61.2,58.2,29.47,NW,315,4.2,-999.0,90,-99.99,,,0.03,Acu-Link.com,2013-06-12 12:36:00,
2013-06-12 08:52:00,60.4,57.5,29.47,SSW,202,3.7,-999.0,90,-99.99,,,0.03,Acu-Link.com,2013-06-12 12:52:00,
2013-06-12 09:07:00,61.2,57.0,29.47,WNW,292,7.8,-999.0,86,-99.99,,,0.03,Acu-Link.com,2013-06-12 13:07:00,
2013-06-12 09:22:00,62.4,57.2,29.47,SSW,202,3.7,-999.0,83,-99.99,,,0.03,Acu-Link.com,2013-06-12 13:22:00,
2013-06-12 09:37:00,62.6,56.7,29.48,NW,315,1.7,-999.0,81,-99.99,,,0.03,Acu-Link.com,2013-06-12 13:37:00,
2013-06-12 09:52:00,62.6,56.3,29.48,South,180,4.7,-999.0,80,-99.99,,,0.03,Acu-Link.com,2013-06-12 13:52:00,
2013-06-12 10:08:00,62.4,56.5,29.48,North,0,4.7,-999.0,81,-99.99,,,0.03,Acu-Link.com,2013-06-12 14:08:00,
2013-06-12 10:23:00,61.3,56.7,29.48,WNW,292,7.8,-999.0,85,-99.99,,,0.03,Acu-Link.com,2013-06-12 14:23:00,
2013-06-12 10:38:00,64.4,58.1,29.48,WNW,292,5.8,-999.0,80,-99.99,,,0.03,Acu-Link.com,2013-06-12 14:38:00,
2013-06-12 10:53:00,65.7,57.9,29.47,West,270,8.3,-999.0,76,-99.99,,,0.03,Acu-Link.com,2013-06-12 14:53:00,
2013-06-12 11:09:00,64.8,56.7,29.48,West,270,6.3,-999.0,75,-99.99,,,0.03,Acu-Link.com,2013-06-12 15:09:00,
2013-06-12 11:24:00,67.5,56.6,29.49,West,270,15.0,-999.0,68,-99.99,,,0.03,Acu-Link.com,2013-06-12 15:24:00,
2013-06-12 11:39:00,66.7,55.4,29.49,North,0,16.6,-999.0,67,-99.99,,,0.03,Acu-Link.com,2013-06-12 15:39:00,
2013-06-12 11:54:00,66.7,55.8,29.49,West,270,11.9,-999.0,68,-99.99,,,0.03,Acu-Link.com,2013-06-12 15:54:00,
2013-06-12 12:09:00,68.9,57.5,29.49,NW,315,4.7,-999.0,67,-99.99,,,0.03,Acu-Link.com,2013-06-12 16:09:00,
2013-06-12 12:25:00,69.4,56.7,29.50,NE,45,9.4,-999.0,64,-99.99,,,0.04,Acu-Link.com,2013-06-12 16:25:00,
2013-06-12 12:40:00,66.7,54.1,29.51,WSW,247,9.4,-999.0,64,-99.99,,,0.04,Acu-Link.com,2013-06-12 16:40:00,
2013-06-12 12:55:00,66.9,54.3,29.50,West,270,6.8,-999.0,64,-99.99,,,0.04,Acu-Link.com,2013-06-12 16:55:00,
2013-06-12 13:10:00,67.1,54.1,29.52,WNW,292,6.8,-999.0,63,-99.99,,,0.04,Acu-Link.com,2013-06-12 17:10:00,
2013-06-12 13:25:00,69.1,55.1,29.51,SE,135,7.3,-999.0,61,-99.99,,,0.04,Acu-Link.com,2013-06-12 17:25:00,
2013-06-12 13:41:00,69.6,54.6,29.51,NNW,337,8.3,-999.0,59,-99.99,,,0.04,Acu-Link.com,2013-06-12 17:41:00,
2013-06-12 13:56:00,70.3,55.3,29.51,NW,315,11.4,-999.0,59,-99.99,,,0.04,Acu-Link.com,2013-06-12 17:56:00,
2013-06-12 14:11:00,69.6,54.6,29.52,NNW,337,6.8,-999.0,59,-99.99,,,0.04,Acu-Link.com,2013-06-12 18:11:00,
2013-06-12 14:26:00,68.7,54.7,29.52,WSW,247,6.3,-999.0,61,-99.99,,,0.04,Acu-Link.com,2013-06-12 18:26:00,
2013-06-12 14:42:00,68.0,54.9,29.54,ESE,112,4.7,-999.0,63,-99.99,,,0.04,Acu-Link.com,2013-06-12 18:42:00,
2013-06-12 14:57:00,68.5,55.0,29.53,NW,315,3.7,-999.0,62,-99.99,,,0.04,Acu-Link.com,2013-06-12 18:57:00,
2013-06-12 15:12:00,69.6,55.5,29.52,West,270,5.8,-999.0,61,-99.99,,,0.04,Acu-Link.com,2013-06-12 19:12:00,
2013-06-12 15:27:00,68.5,55.0,29.53,WSW,247,3.2,-999.0,62,-99.99,,,0.04,Acu-Link.com,2013-06-12 19:27:00,
2013-06-12 15:42:00,68.0,54.5,29.53,NNE,22,2.2,-999.0,62,-99.99,,,0.04,Acu-Link.com,2013-06-12 19:42:00,
2013-06-12 15:58:00,67.8,54.3,29.54,NNW,337,4.2,-999.0,62,-99.99,,,0.04,Acu-Link.com,2013-06-12 19:58:00,
2013-06-12 16:13:00,70.2,54.7,29.54,West,270,7.3,-999.0,58,-99.99,,,0.04,Acu-Link.com,2013-06-12 20:13:00,
2013-06-12 16:28:00,68.5,54.5,29.54,South,180,2.7,-999.0,61,-99.99,,,0.04,Acu-Link.com,2013-06-12 20:28:00,
2013-06-12 16:43:00,67.1,54.1,29.56,NNW,337,8.9,-999.0,63,-99.99,,,0.04,Acu-Link.com,2013-06-12 20:43:00,
2013-06-12 16:58:00,64.4,55.9,29.56,South,180,4.2,-999.0,74,-99.99,,,0.04,Acu-Link.com,2013-06-12 20:58:00,
2013-06-12 17:14:00,66.9,56.8,29.56,WSW,247,4.2,-999.0,70,-99.99,,,0.04,Acu-Link.com,2013-06-12 21:14:00,
2013-06-12 17:29:00,69.1,55.5,29.56,NE,45,7.8,-999.0,62,-99.99,,,0.04,Acu-Link.com,2013-06-12 21:29:00,
2013-06-12 17:44:00,72.1,55.5,29.56,ESE,112,3.2,-999.0,56,-99.99,,,0.04,Acu-Link.com,2013-06-12 21:44:00,
2013-06-12 17:59:00,72.3,54.7,29.57,SSE,157,4.7,-999.0,54,-99.99,,,0.04,Acu-Link.com,2013-06-12 21:59:00,
2013-06-12 18:15:00,70.5,55.0,29.57,West,270,4.2,-999.0,58,-99.99,,,0.04,Acu-Link.com,2013-06-12 22:15:00,
2013-06-12 18:30:00,69.4,54.9,29.58,East,90,3.2,-999.0,60,-99.99,,,0.04,Acu-Link.com,2013-06-12 22:30:00,
2013-06-12 18:45:00,68.5,54.1,29.59,North,0,3.7,-999.0,60,-99.99,,,0.04,Acu-Link.com,2013-06-12 22:45:00,
2013-06-12 19:00:00,68.5,54.1,29.60,SE,135,4.2,-999.0,60,-99.99,,,0.04,Acu-Link.com,2013-06-12 23:00:00,
2013-06-12 19:15:00,68.7,53.8,29.59,West,270,5.3,-999.0,59,-99.99,,,0.04,Acu-Link.com,2013-06-12 23:15:00,
2013-06-12 19:31:00,67.6,53.2,29.60,South,180,3.7,-999.0,60,-99.99,,,0.04,Acu-Link.com,2013-06-12 23:31:00,
2013-06-12 19:46:00,66.4,52.5,29.60,SSE,157,3.2,-999.0,61,-99.99,,,0.04,Acu-Link.com,2013-06-12 23:46:00,
2013-06-12 20:01:00,65.8,53.3,29.61,North,0,1.7,-999.0,64,-99.99,,,0.04,Acu-Link.com,2013-06-13 00:01:00,
2013-06-12 20:16:00,65.5,53.8,29.62,West,270,3.2,-999.0,66,-99.99,,,0.04,Acu-Link.com,2013-06-13 00:16:00,
2013-06-12 20:31:00,65.1,53.0,29.63,ESE,112,4.7,-999.0,65,-99.99,,,0.04,Acu-Link.com,2013-06-13 00:31:00,
2013-06-12 20:47:00,64.9,53.3,29.63,West,270,4.7,-999.0,66,-99.99,,,0.04,Acu-Link.com,2013-06-13 00:47:00,
2013-06-12 21:02:00,64.6,53.0,29.65,West,270,2.7,-999.0,66,-99.99,,,0.04,Acu-Link.com,2013-06-13 01:02:00,
2013-06-12 21:17:00,64.4,53.2,29.66,West,270,4.7,-999.0,67,-99.99,,,0.04,Acu-Link.com,2013-06-13 01:17:00,
2013-06-12 21:32:00,63.7,52.5,29.67,West,270,3.7,-999.0,67,-99.99,,,0.04,Acu-Link.com,2013-06-13 01:32:00,
2013-06-12 21:47:00,63.1,53.2,29.67,ESE,112,1.7,-999.0,70,-99.99,,,0.04,Acu-Link.com,2013-06-13 01:47:00,
2013-06-12 22:03:00,63.0,53.1,29.67,West,270,2.2,-999.0,70,-99.99,,,0.04,Acu-Link.com,2013-06-13 02:03:00,
2013-06-12 22:18:00,63.0,53.1,29.67,SW,225,4.7,-999.0,70,-99.99,,,0.04,Acu-Link.com,2013-06-13 02:18:00,
2013-06-12 22:33:00,62.4,52.9,29.67,West,270,4.2,-999.0,71,-99.99,,,0.04,Acu-Link.com,2013-06-13 02:33:00,
2013-06-12 22:48:00,61.5,52.4,29.67,NW,315,2.7,-999.0,72,-99.99,,,0.04,Acu-Link.com,2013-06-13 02:48:00,
2013-06-12 23:04:00,60.6,52.6,29.67,WSW,247,1.1,-999.0,75,-99.99,,,0.04,Acu-Link.com,2013-06-13 03:04:00,
2013-06-12 23:19:00,59.5,52.3,29.66,WNW,292,0.0,-999.0,77,-99.99,,,0.04,Acu-Link.com,2013-06-13 03:19:00,
2013-06-12 23:34:00,59.0,52.1,29.66,NE,45,0.0,-999.0,78,-99.99,,,0.04,Acu-Link.com,2013-06-13 03:34:00,
2013-06-12 23:49:00,58.5,52.4,29.66,West,270,2.2,-999.0,80,-99.99,,,0.04,Acu-Link.com,2013-06-13 03:49:00,